Time,TemperatureF,DewpointF,PressureIn,WindDirection,WindDirectionDegrees,WindSpeedMPH,WindSpeedGustMPH,Humidity,HourlyPrecipIn,Conditions,Clouds,dailyrainin,SolarRadiationWatts/m^2,SoftwareType,DateUTC
2013-03-15 00:02:00,43.0,37.0,-100.00,WSW,258,10.0,21.0,79,0.00,,,-99.99,0.000000,,2013-03-15 07:02:00,
2013-03-15 00:12:00,43.0,37.0,-100.00,WSW,258,10.0,21.0,79,0.00,,,-99.99,0.000000,,2013-03-15 07:12:00,
2013-03-15 00:22:00,43.0,37.0,-100.00,WSW,258,10.0,21.0,79,0.00,,,-99.99,0.000000,,2013-03-15 07:22:00,
2013-03-15 00:32:00,43.0,37.0,-100.00,WSW,258,10.0,21.0,79,0.00,,,-99.99,0.000000,,2013-03-15 07:32:00,
2013-03-15 00:52:00,42.0,37.0,-100.00,WSW,252,7.0,17.0,81,0.00,,,0.00,0.000000,,2013-03-15 07:52:00,
2013-03-15 01:02:00,42.0,37.0,-100.00,WSW,252,7.0,17.0,81,0.00,,,0.00,0.000000,,2013-03-15 08:02:00,
2013-03-15 01:12:00,42.0,37.0,-100.00,WSW,252,7.0,17.0,81,0.00,,,0.00,0.000000,,2013-03-15 08:12:00,
2013-03-15 01:22:00,42.0,37.0,-100.00,WSW,252,7.0,17.0,81,0.00,,,0.00,0.000000,,2013-03-15 08:22:00,
2013-03-15 01:31:00,42.0,37.0,-100.00,WSW,252,7.0,17.0,81,0.00,,,0.00,0.000000,,2013-03-15 08:31:00,
2013-03-15 01:52:00,41.0,37.0,-100.00,West,275,6.0,17.0,87,0.00,,,0.00,0.000000,,2013-03-15 08:52:00,
2013-03-15 02:02:00,41.0,37.0,-100.00,West,275,6.0,17.0,87,0.00,,,0.00,0.000000,,2013-03-15 09:02:00,
2013-03-15 02:12:00,41.0,37.0,-100.00,West,275,6.0,17.0,87,0.00,,,0.00,0.000000,,2013-03-15 09:12:00,
2013-03-15 02:21:00,41.0,37.0,-100.00,West,275,6.0,17.0,87,0.00,,,0.00,0.000000,,2013-03-15 09:21:00,
2013-03-15 02:33:00,41.0,37.0,-100.00,West,275,6.0,17.0,87,0.00,,,0.00,0.000000,,2013-03-15 09:33:00,
2013-03-15 02:53:00,41.0,36.0,-100.00,WSW,251,10.0,19.0,83,0.00,,,0.00,0.000000,,2013-03-15 09:53:00,
2013-03-15 03:02:00,41.0,36.0,-100.00,WSW,251,10.0,19.0,83,0.00,,,0.00,0.000000,,2013-03-15 10:02:00,
2013-03-15 03:12:00,41.0,36.0,-100.00,WSW,251,10.0,19.0,83,0.00,,,0.00,0.000000,,2013-03-15 10:12:00,
2013-03-15 03:23:00,41.0,36.0,-100.00,WSW,251,10.0,19.0,83,0.00,,,0.00,0.000000,,2013-03-15 10:23:00,
2013-03-15 03:32:00,41.0,36.0,-100.00,WSW,251,10.0,19.0,83,0.00,,,0.00,0.000000,,2013-03-15 10:32:00,
2013-03-15 03:52:00,41.0,37.0,-100.00,West,265,9.0,17.0,84,0.00,,,0.00,0.000000,,2013-03-15 10:52:00,
2013-03-15 04:02:00,41.0,37.0,-100.00,West,265,9.0,17.0,84,0.00,,,0.00,0.000000,,2013-03-15 11:02:00,
2013-03-15 04:12:00,41.0,37.0,-100.00,West,265,9.0,17.0,84,0.00,,,0.00,0.000000,,2013-03-15 11:12:00,
2013-03-15 04:22:00,41.0,37.0,-100.00,West,265,9.0,17.0,84,0.00,,,0.00,0.000000,,2013-03-15 11:22:00,
2013-03-15 04:32:00,41.0,37.0,-100.00,West,265,9.0,17.0,84,0.00,,,0.00,0.000000,,2013-03-15 11:32:00,
2013-03-15 04:52:00,40.0,36.0,-100.00,West,279,9.0,16.0,87,0.00,,,0.00,0.000000,,2013-03-15 11:52:00,
2013-03-15 05:02:00,40.0,36.0,-100.00,West,279,9.0,16.0,87,0.00,,,0.00,0.000000,,2013-03-15 12:02:00,
2013-03-15 05:12:00,40.0,36.0,-100.00,West,279,9.0,16.0,87,0.00,,,0.00,0.000000,,2013-03-15 12:12:00,
2013-03-15 05:22:00,40.0,36.0,-100.00,West,279,9.0,16.0,87,0.00,,,0.00,0.000000,,2013-03-15 12:22:00,
2013-03-15 05:32:00,40.0,36.0,-100.00,West,279,9.0,16.0,87,0.00,,,0.00,0.000000,,2013-03-15 12:32:00,
2013-03-15 05:52:00,39.0,36.0,-100.00,WNW,286,6.0,13.0,88,0.00,,,0.00,0.000000,,2013-03-15 12:52:00,
2013-03-15 06:02:00,39.0,36.0,-100.00,WNW,286,6.0,13.0,88,0.00,,,0.00,0.000000,,2013-03-15 13:02:00,
2013-03-15 06:12:00,39.0,36.0,-100.00,WNW,286,6.0,13.0,88,0.00,,,0.00,0.000000,,2013-03-15 13:12:00,
2013-03-15 06:22:00,39.0,36.0,-100.00,WNW,286,6.0,13.0,88,0.00,,,0.00,0.000000,,2013-03-15 13:22:00,
2013-03-15 06:32:00,39.0,36.0,-100.00,WNW,286,6.0,13.0,88,0.00,,,0.00,0.000000,,2013-03-15 13:32:00,
2013-03-15 06:52:00,39.0,35.0,-100.00,West,276,8.0,16.0,84,0.00,,,-99.99,0.000000,,2013-03-15 13:52:00,
2013-03-15 07:02:00,39.0,35.0,-100.00,West,276,8.0,16.0,84,0.00,,,-99.99,0.000000,,2013-03-15 14:02:00,
2013-03-15 07:12:00,39.0,35.0,-100.00,West,276,8.0,16.0,84,0.00,,,-99.99,0.000000,,2013-03-15 14:12:00,
2013-03-15 07:22:00,39.0,35.0,-100.00,West,276,8.0,16.0,84,0.00,,,-99.99,0.000000,,2013-03-15 14:22:00,
2013-03-15 07:32:00,39.0,35.0,-100.00,West,276,8.0,16.0,84,0.00,,,-99.99,0.000000,,2013-03-15 14:32:00,
2013-03-15 07:53:00,39.0,35.0,-100.00,WNW,285,7.0,14.0,85,0.00,,,0.00,1.000000,,2013-03-15 14:53:00,
2013-03-15 08:02:00,39.0,35.0,-100.00,WNW,285,7.0,14.0,85,0.00,,,0.00,1.000000,,2013-03-15 15:02:00,
2013-03-15 08:12:00,39.0,35.0,-100.00,WNW,285,7.0,14.0,85,0.00,,,0.00,1.000000,,2013-03-15 15:12:00,
2013-03-15 08:22:00,39.0,35.0,-100.00,WNW,285,7.0,14.0,85,0.00,,,0.00,1.000000,,2013-03-15 15:22:00,
2013-03-15 08:32:00,39.0,35.0,-100.00,WNW,285,7.0,14.0,85,0.00,,,0.00,1.000000,,2013-03-15 15:32:00,
2013-03-15 08:53:00,40.0,33.0,-100.00,WNW,303,4.0,10.0,77,0.00,,,0.00,38.000000,,2013-03-15 15:53:00,
2013-03-15 09:02:00,40.0,33.0,-100.00,WNW,303,4.0,10.0,77,0.00,,,0.00,38.000000,,2013-03-15 16:02:00,
2013-03-15 09:12:00,40.0,33.0,-100.00,WNW,303,4.0,10.0,77,0.00,,,0.00,38.000000,,2013-03-15 16:12:00,
2013-03-15 09:22:00,40.0,33.0,-100.00,WNW,303,4.0,10.0,77,0.00,,,0.00,38.000000,,2013-03-15 16:22:00,
2013-03-15 09:32:00,40.0,33.0,-100.00,WNW,303,4.0,10.0,77,0.00,,,0.00,38.000000,,2013-03-15 16:32:00,
2013-03-15 09:52:00,43.0,34.0,-100.00,West,276,6.0,10.0,71,0.00,,,0.00,159.000000,,2013-03-15 16:52:00,
2013-03-15 10:02:00,43.0,34.0,-100.00,West,276,6.0,10.0,71,0.00,,,0.00,159.000000,,2013-03-15 17:02:00,
2013-03-15 10:12:00,43.0,34.0,-100.00,West,276,6.0,10.0,71,0.00,,,0.00,159.000000,,2013-03-15 17:12:00,
2013-03-15 10:22:00,43.0,34.0,-100.00,West,276,6.0,10.0,71,0.00,,,0.00,159.000000,,2013-03-15 17:22:00,
2013-03-15 10:32:00,43.0,34.0,-100.00,West,276,6.0,10.0,71,0.00,,,0.00,159.000000,,2013-03-15 17:32:00,
2013-03-15 10:53:00,45.0,36.0,-100.00,North,1,4.0,10.0,70,0.00,,,0.00,248.000000,,2013-03-15 17:53:00,
2013-03-15 11:02:00,45.0,36.0,-100.00,North,1,4.0,10.0,70,0.00,,,0.00,248.000000,,2013-03-15 18:02:00,
2013-03-15 11:12:00,45.0,36.0,-100.00,North,1,4.0,10.0,70,0.00,,,0.00,248.000000,,2013-03-15 18:12:00,
2013-03-15 11:22:00,45.0,36.0,-100.00,North,1,4.0,10.0,70,0.00,,,0.00,248.000000,,2013-03-15 18:22:00,
2013-03-15 11:32:00,45.0,36.0,-100.00,North,1,4.0,10.0,70,0.00,,,0.00,248.000000,,2013-03-15 18:32:00,
2013-03-15 11:52:00,48.0,35.0,-100.00,WNW,282,4.0,11.0,60,0.00,,,0.00,424.000000,,2013-03-15 18:52:00,
2013-03-15 12:02:00,48.0,35.0,-100.00,WNW,282,4.0,11.0,60,0.00,,,0.00,424.000000,,2013-03-15 19:02:00,
2013-03-15 12:12:00,48.0,35.0,-100.00,WNW,282,4.0,11.0,60,0.00,,,0.00,424.000000,,2013-03-15 19:12:00,
2013-03-15 12:22:00,48.0,35.0,-100.00,WNW,282,4.0,11.0,60,0.00,,,0.00,424.000000,,2013-03-15 19:22:00,
2013-03-15 12:31:00,48.0,35.0,-100.00,WNW,282,4.0,11.0,60,0.00,,,0.00,424.000000,,2013-03-15 19:31:00,
2013-03-15 12:52:00,50.0,36.0,-100.00,West,262,4.0,10.0,58,0.00,,,-99.99,501.000000,,2013-03-15 19:52:00,
2013-03-15 13:02:00,50.0,36.0,-100.00,West,262,4.0,10.0,58,0.00,,,-99.99,501.000000,,2013-03-15 20:02:00,
2013-03-15 13:12:00,50.0,36.0,-100.00,West,262,4.0,10.0,58,0.00,,,-99.99,501.000000,,2013-03-15 20:12:00,
2013-03-15 13:22:00,50.0,36.0,-100.00,West,262,4.0,10.0,58,0.00,,,-99.99,501.000000,,2013-03-15 20:22:00,
2013-03-15 13:31:00,50.0,36.0,-100.00,West,262,4.0,10.0,58,0.00,,,-99.99,501.000000,,2013-03-15 20:31:00,
2013-03-15 13:52:00,53.0,37.0,-100.00,South,183,3.0,10.0,55,0.00,,,0.00,573.000000,,2013-03-15 20:52:00,
2013-03-15 14:02:00,53.0,37.0,-100.00,South,183,3.0,10.0,55,0.00,,,0.00,573.000000,,2013-03-15 21:02:00,
2013-03-15 14:12:00,53.0,37.0,-100.00,South,183,3.0,10.0,55,0.00,,,0.00,573.000000,,2013-03-15 21:12:00,
2013-03-15 14:22:00,53.0,37.0,-100.00,South,183,3.0,10.0,55,0.00,,,0.00,573.000000,,2013-03-15 21:22:00,
2013-03-15 14:32:00,53.0,37.0,-100.00,South,183,3.0,10.0,55,0.00,,,0.00,573.000000,,2013-03-15 21:32:00,
2013-03-15 14:52:00,53.0,35.0,-100.00,West,259,6.0,12.0,50,0.00,,,0.00,529.000000,,2013-03-15 21:52:00,
2013-03-15 15:03:00,53.0,35.0,-100.00,West,259,6.0,12.0,50,0.00,,,0.00,529.000000,,2013-03-15 22:03:00,
2013-03-15 15:13:00,53.0,35.0,-100.00,West,259,6.0,12.0,50,0.00,,,0.00,529.000000,,2013-03-15 22:13:00,
2013-03-15 15:22:00,53.0,35.0,-100.00,West,259,6.0,12.0,50,0.00,,,0.00,529.000000,,2013-03-15 22:22:00,
2013-03-15 15:32:00,53.0,35.0,-100.00,West,259,6.0,12.0,50,0.00,,,0.00,529.000000,,2013-03-15 22:32:00,
2013-03-15 15:52:00,52.0,33.0,-100.00,WNW,282,6.0,12.0,49,0.00,,,0.00,395.000000,,2013-03-15 22:52:00,
2013-03-15 16:02:00,52.0,33.0,-100.00,WNW,282,6.0,12.0,49,0.00,,,0.00,395.000000,,2013-03-15 23:02:00,
2013-03-15 16:12:00,52.0,33.0,-100.00,WNW,282,6.0,12.0,49,0.00,,,0.00,395.000000,,2013-03-15 23:12:00,
2013-03-15 16:22:00,52.0,33.0,-100.00,WNW,282,6.0,12.0,49,0.00,,,0.00,395.000000,,2013-03-15 23:22:00,
2013-03-15 16:32:00,52.0,33.0,-100.00,WNW,282,6.0,12.0,49,0.00,,,0.00,395.000000,,2013-03-15 23:32:00,
2013-03-15 16:53:00,50.0,32.0,-100.00,NW,305,7.0,14.0,50,0.00,,,0.00,297.000000,,2013-03-15 23:53:00,
2013-03-15 17:02:00,50.0,32.0,-100.00,NW,305,7.0,14.0,50,0.00,,,0.00,297.000000,,2013-03-16 00:02:00,
2013-03-15 17:12:00,50.0,32.0,-100.00,NW,305,7.0,14.0,50,0.00,,,0.00,297.000000,,2013-03-16 00:12:00,
2013-03-15 17:22:00,50.0,32.0,-100.00,NW,305,7.0,14.0,50,0.00,,,0.00,297.000000,,2013-03-16 00:22:00,
2013-03-15 17:32:00,50.0,32.0,-100.00,NW,305,7.0,14.0,50,0.00,,,0.00,297.000000,,2013-03-16 00:32:00,
2013-03-15 17:52:00,49.0,30.0,-100.00,WNW,297,5.0,15.0,48,0.00,,,0.00,177.000000,,2013-03-16 00:52:00,
2013-03-15 18:02:00,49.0,30.0,-100.00,WNW,297,5.0,15.0,48,0.00,,,0.00,177.000000,,2013-03-16 01:02:00,
2013-03-15 18:12:00,49.0,30.0,-100.00,WNW,297,5.0,15.0,48,0.00,,,0.00,177.000000,,2013-03-16 01:12:00,
2013-03-15 18:21:00,49.0,30.0,-100.00,WNW,297,5.0,15.0,48,0.00,,,0.00,177.000000,,2013-03-16 01:21:00,
2013-03-15 18:32:00,49.0,30.0,-100.00,WNW,297,5.0,15.0,48,0.00,,,0.00,177.000000,,2013-03-16 01:32:00,
2013-03-15 18:52:00,49.0,33.0,-100.00,North,2,4.0,11.0,54,0.00,,,0.00,73.000000,,2013-03-16 01:52:00,
2013-03-15 19:02:00,49.0,33.0,-100.00,North,2,4.0,11.0,54,0.00,,,0.00,73.000000,,2013-03-16 02:02:00,
2013-03-15 19:12:00,49.0,33.0,-100.00,North,2,4.0,11.0,54,0.00,,,0.00,73.000000,,2013-03-16 02:12:00,
2013-03-15 19:22:00,49.0,33.0,-100.00,North,2,4.0,11.0,54,0.00,,,0.00,73.000000,,2013-03-16 02:22:00,
2013-03-15 19:32:00,49.0,33.0,-100.00,North,2,4.0,11.0,54,0.00,,,0.00,73.000000,,2013-03-16 02:32:00,
2013-03-15 19:52:00,45.0,33.0,-100.00,NNW,335,8.0,14.0,62,0.00,,,0.00,18.000000,,2013-03-16 02:52:00,
2013-03-15 20:02:00,45.0,33.0,-100.00,NNW,335,8.0,14.0,62,0.00,,,0.00,18.000000,,2013-03-16 03:02:00,
2013-03-15 20:12:00,45.0,33.0,-100.00,NNW,335,8.0,14.0,62,0.00,,,0.00,18.000000,,2013-03-16 03:12:00,
2013-03-15 20:21:00,45.0,33.0,-100.00,NNW,335,8.0,14.0,62,0.00,,,0.00,18.000000,,2013-03-16 03:21:00,
2013-03-15 20:32:00,45.0,33.0,-100.00,NNW,335,8.0,14.0,62,0.00,,,0.00,18.000000,,2013-03-16 03:32:00,
2013-03-15 20:53:00,43.0,35.0,-100.00,NW,315,9.0,15.0,72,0.00,,,0.00,0.000000,,2013-03-16 03:53:00,
2013-03-15 21:02:00,43.0,35.0,-100.00,NW,315,9.0,15.0,72,0.00,,,0.00,0.000000,,2013-03-16 04:02:00,
2013-03-15 21:12:00,43.0,35.0,-100.00,NW,315,9.0,15.0,72,0.00,,,0.00,0.000000,,2013-03-16 04:12:00,
2013-03-15 21:22:00,43.0,35.0,-100.00,NW,315,9.0,15.0,72,0.00,,,0.00,0.000000,,2013-03-16 04:22:00,
2013-03-15 21:32:00,43.0,35.0,-100.00,NW,315,9.0,15.0,72,0.00,,,0.00,0.000000,,2013-03-16 04:32:00,
2013-03-15 21:53:00,42.0,35.0,-100.00,NW,314,8.0,14.0,77,0.00,,,0.00,0.000000,,2013-03-16 04:53:00,
2013-03-15 22:02:00,42.0,35.0,-100.00,NW,314,8.0,14.0,77,0.00,,,0.00,0.000000,,2013-03-16 05:02:00,
2013-03-15 22:12:00,42.0,35.0,-100.00,NW,314,8.0,14.0,77,0.00,,,0.00,0.000000,,2013-03-16 05:12:00,
2013-03-15 22:21:00,42.0,35.0,-100.00,NW,314,8.0,14.0,77,0.00,,,0.00,0.000000,,2013-03-16 05:21:00,
2013-03-15 22:32:00,42.0,35.0,-100.00,NW,314,8.0,14.0,77,0.00,,,0.00,0.000000,,2013-03-16 05:32:00,
2013-03-15 22:53:00,40.0,34.0,-100.00,WNW,297,8.0,13.0,80,0.00,,,0.00,0.000000,,2013-03-16 05:53:00,
2013-03-15 23:02:00,40.0,34.0,-100.00,WNW,297,8.0,13.0,80,0.00,,,0.00,0.000000,,2013-03-16 06:02:00,
2013-03-15 23:12:00,40.0,34.0,-100.00,WNW,297,8.0,13.0,80,0.00,,,0.00,0.000000,,2013-03-16 06:12:00,
2013-03-15 23:21:00,40.0,34.0,-100.00,WNW,297,8.0,13.0,80,0.00,,,0.00,0.000000,,2013-03-16 06:21:00,
2013-03-15 23:32:00,40.0,34.0,-100.00,WNW,297,8.0,13.0,80,0.00,,,0.00,0.000000,,2013-03-16 06:32:00,
2013-03-15 23:52:00,40.0,34.0,-100.00,West,271,8.0,16.0,78,0.00,,,0.00,0.000000,,2013-03-16 06:52:00,